createdAt,value
2022-12-14T00:01:40.986Z,85.14
2022-12-14T00:04:07.898Z,85.18
2022-12-14T00:06:34.898Z,85.29
2022-12-14T00:09:04.494Z,85.19
2022-12-14T00:11:34.349Z,85.73
2022-12-14T00:14:03.687Z,85.23
2022-12-14T00:16:34.046Z,85.21
2022-12-14T00:19:02.057Z,85.76
2022-12-14T00:21:29.050Z,85.11
2022-12-14T00:23:59.017Z,85.70
2022-12-14T00:26:29.854Z,85.79
2022-12-14T00:28:56.746Z,86.51
2022-12-14T00:31:25.350Z,86.06
2022-12-14T00:33:53.038Z,86.26
2022-12-14T00:36:20.547Z,86.20
2022-12-14T00:38:47.397Z,86.78
2022-12-14T00:41:14.167Z,86.93
2022-12-14T00:43:41.223Z,87.63
2022-12-14T00:46:08.295Z,87.93
2022-12-14T00:48:35.194Z,87.75
2022-12-14T00:51:02.039Z,87.89
2022-12-14T00:53:28.752Z,87.91
2022-12-14T00:55:55.656Z,89.04
2022-12-14T00:58:25.093Z,89.53
2022-12-14T01:01:05.115Z,88.51
2022-12-14T01:03:32.993Z,88.47
2022-12-14T01:06:00.336Z,88.45
2022-12-14T01:08:35.796Z,88.43
2022-12-14T01:11:10.742Z,88.14
2022-12-14T01:13:38.574Z,87.29
2022-12-14T01:16:08.710Z,87.47
2022-12-14T01:18:37.849Z,87.80
2022-12-14T01:21:24.629Z,88.32
2022-12-14T01:23:56.430Z,88.53
2022-12-14T01:26:24.368Z,87.79
2022-12-14T01:28:56.299Z,88.39
2022-12-14T01:31:29.757Z,87.76
2022-12-14T01:33:57.437Z,88.93
2022-12-14T01:36:29.909Z,89.00
2022-12-14T01:38:58.981Z,88.87
2022-12-14T01:41:38.873Z,88.23
2022-12-14T01:44:08.306Z,88.78
2022-12-14T01:46:50.027Z,88.79
2022-12-14T01:49:26.410Z,88.40
2022-12-14T01:52:04.002Z,88.90
2022-12-14T01:54:34.994Z,89.13
2022-12-14T01:57:02.036Z,89.69
2022-12-14T01:59:35.190Z,89.46
2022-12-14T02:02:05.977Z,88.90
2022-12-14T02:04:41.878Z,89.73
2022-12-14T02:07:09.506Z,89.92
2022-12-14T02:09:40.233Z,89.53
2022-12-14T02:12:16.842Z,89.61
2022-12-14T02:14:44.489Z,89.84
2022-12-14T02:17:13.868Z,90.15
2022-12-14T02:19:43.801Z,90.43
2022-12-14T02:22:31.449Z,90.72
2022-12-14T02:25:27.438Z,89.68
2022-12-14T02:28:36.105Z,90.33
2022-12-14T02:31:21.319Z,90.61
2022-12-14T02:34:00.800Z,91.10
2022-12-14T02:36:48.132Z,91.27
2022-12-14T02:39:41.405Z,91.17
2022-12-14T02:42:15.854Z,91.12
2022-12-14T02:45:17.597Z,90.40
2022-12-14T02:48:10.493Z,89.85
2022-12-14T02:51:07.028Z,89.70
2022-12-14T02:53:54.083Z,89.33
2022-12-14T02:56:32.050Z,89.87
2022-12-14T02:58:59.046Z,90.60
2022-12-14T03:01:29.610Z,90.38
2022-12-14T03:03:56.602Z,90.98
2022-12-14T03:06:28.438Z,91.05
2022-12-14T03:09:15.861Z,90.54
2022-12-14T03:12:15.948Z,90.81
2022-12-14T03:14:49.297Z,90.63
2022-12-14T03:17:34.654Z,90.59
2022-12-14T03:20:08.243Z,91.17
2022-12-14T03:22:41.923Z,91.51
2022-12-14T03:25:15.622Z,91.25
2022-12-14T03:27:51.653Z,90.91
2022-12-14T03:30:37.167Z,90.67
2022-12-14T03:33:13.758Z,90.37
2022-12-14T03:35:48.550Z,90.47
2022-12-14T03:38:48.386Z,90.47
2022-12-14T03:41:51.589Z,90.48
2022-12-14T03:44:41.861Z,90.84
2022-12-14T03:47:33.908Z,90.27
2022-12-14T03:50:09.804Z,90.47
2022-12-14T03:53:06.003Z,90.12
2022-12-14T03:56:15.462Z,90.85
2022-12-14T03:58:57.561Z,90.84
2022-12-14T04:01:51.441Z,91.23
2022-12-14T04:04:39.038Z,92.01
2022-12-14T04:07:33.909Z,91.67
2022-12-14T04:10:29.300Z,91.39
2022-12-14T04:13:24.487Z,91.11
2022-12-14T04:16:13.246Z,92.18
2022-12-14T04:18:59.803Z,92.49
2022-12-14T04:21:36.667Z,92.14
2022-12-14T04:24:53.512Z,92.52
2022-12-14T04:27:35.066Z,92.40
2022-12-14T04:30:04.077Z,91.95
2022-12-14T04:32:54.520Z,91.62
2022-12-14T04:35:36.649Z,92.17
2022-12-14T04:38:18.582Z,92.26
2022-12-14T04:40:56.163Z,92.28
2022-12-14T04:43:30.599Z,91.56
2022-12-14T04:46:11.609Z,92.06
2022-12-14T04:48:46.941Z,92.87
2022-12-14T04:51:31.573Z,92.35
2022-12-14T04:54:11.048Z,92.81
2022-12-14T04:56:55.288Z,93.52
2022-12-14T04:59:22.832Z,94.09
2022-12-14T05:02:09.002Z,93.74
2022-12-14T05:05:18.004Z,94.12
2022-12-14T05:08:12.529Z,94.05
2022-12-14T05:11:16.144Z,94.44
2022-12-14T05:13:50.343Z,94.36
2022-12-14T05:16:21.108Z,94.10
2022-12-14T05:18:48.413Z,94.13
2022-12-14T05:21:35.158Z,93.52
2022-12-14T05:24:04.290Z,93.35
2022-12-14T05:26:31.816Z,93.95
2022-12-14T05:28:58.677Z,94.54
2022-12-14T05:31:26.055Z,94.20
2022-12-14T05:33:52.890Z,93.80
2022-12-14T05:36:19.981Z,94.07
2022-12-14T05:38:46.904Z,94.08
2022-12-14T05:41:14.398Z,93.90
2022-12-14T05:43:41.621Z,93.87
2022-12-14T05:46:11.544Z,93.60
2022-12-14T05:48:38.654Z,93.47
2022-12-14T05:51:09.719Z,93.53
2022-12-14T05:53:37.359Z,92.96
2022-12-14T05:56:05.979Z,92.71
2022-12-14T05:58:34.409Z,93.50
2022-12-14T06:01:07.519Z,93.48
2022-12-14T06:03:34.626Z,92.96
2022-12-14T06:06:07.380Z,92.31
2022-12-14T06:08:36.756Z,92.92
2022-12-14T06:11:06.441Z,92.89
2022-12-14T06:13:33.226Z,93.10
2022-12-14T06:16:25.273Z,93.43
2022-12-14T06:18:57.875Z,93.14
2022-12-14T06:21:34.532Z,93.28
2022-12-14T06:24:02.550Z,93.11
2022-12-14T06:26:31.994Z,92.64
2022-12-14T06:28:59.651Z,92.34
2022-12-14T06:31:30.926Z,92.09
2022-12-14T06:34:03.586Z,92.55
2022-12-14T06:36:34.726Z,92.52
2022-12-14T06:39:06.921Z,92.11
2022-12-14T06:41:33.786Z,92.15
2022-12-14T06:44:05.895Z,92.08
2022-12-14T06:46:33.132Z,91.24
2022-12-14T06:48:59.956Z,90.99
2022-12-14T06:51:26.725Z,92.23
2022-12-14T06:53:56.066Z,91.81
2022-12-14T06:56:25.998Z,91.53
2022-12-14T06:58:55.461Z,91.80
2022-12-14T07:01:25.213Z,92.26
2022-12-14T07:03:56.230Z,92.17
2022-12-14T07:06:25.200Z,92.01
2022-12-14T07:08:57.236Z,92.01
2022-12-14T07:11:25.570Z,92.39
2022-12-14T07:13:54.014Z,92.28
2022-12-14T07:16:25.029Z,91.32
2022-12-14T07:18:54.123Z,91.60
2022-12-14T07:21:21.825Z,91.94
2022-12-14T07:23:49.787Z,91.72
2022-12-14T07:26:26.538Z,92.96
2022-12-14T07:28:54.299Z,92.81
2022-12-14T07:31:24.083Z,92.99
2022-12-14T07:33:55.747Z,92.46
2022-12-14T07:36:24.200Z,92.42
2022-12-14T07:38:52.352Z,92.47
2022-12-14T07:41:28.105Z,92.06
2022-12-14T07:43:56.018Z,92.24
2022-12-14T07:46:25.836Z,92.70
2022-12-14T07:48:55.598Z,92.84
2022-12-14T07:51:34.384Z,91.89
2022-12-14T07:54:02.003Z,91.72
2022-12-14T07:56:32.757Z,92.45
2022-12-14T07:59:00.759Z,92.91
2022-12-14T08:01:34.080Z,92.61
2022-12-14T08:04:06.353Z,92.62
2022-12-14T08:06:35.195Z,92.74
2022-12-14T08:09:03.347Z,92.99
2022-12-14T08:11:30.181Z,92.66
2022-12-14T08:14:10.933Z,92.91
2022-12-14T08:16:37.703Z,92.82
2022-12-14T08:19:04.777Z,92.34
2022-12-14T08:21:31.529Z,92.38
2022-12-14T08:23:58.996Z,92.55
2022-12-14T08:26:30.128Z,93.08
2022-12-14T08:29:00.396Z,93.82
2022-12-14T08:31:28.393Z,92.77
2022-12-14T08:33:56.052Z,92.70
2022-12-14T08:36:26.956Z,92.30
2022-12-14T08:38:56.197Z,92.37
2022-12-14T08:41:24.337Z,92.32
2022-12-14T08:43:52.492Z,92.42
2022-12-14T08:46:20.339Z,92.38
2022-12-14T08:48:47.715Z,92.07
2022-12-14T08:51:14.475Z,91.53
2022-12-14T08:53:41.246Z,91.89
2022-12-14T08:56:14.402Z,92.08
2022-12-14T08:58:42.148Z,92.01
2022-12-14T09:01:18.477Z,92.12
2022-12-14T09:03:47.598Z,91.97
2022-12-14T09:06:19.786Z,92.00
2022-12-14T09:08:49.854Z,92.47
2022-12-14T09:11:19.177Z,91.78
2022-12-14T09:13:46.789Z,92.69
2022-12-14T09:16:16.978Z,93.01
2022-12-14T09:18:44.802Z,94.07
2022-12-14T09:21:12.076Z,94.24
2022-12-14T09:23:40.333Z,93.76
2022-12-14T09:26:27.485Z,94.66
2022-12-14T09:28:56.655Z,94.70
2022-12-14T09:31:26.126Z,93.59
2022-12-14T09:33:54.887Z,94.40
2022-12-14T09:36:27.657Z,95.52
2022-12-14T09:38:55.509Z,95.38
2022-12-14T09:41:34.299Z,95.22
2022-12-14T09:44:25.540Z,94.95
2022-12-14T09:47:19.744Z,94.52
2022-12-14T09:49:53.329Z,93.81
2022-12-14T09:52:47.812Z,93.24
2022-12-14T09:55:23.381Z,93.55
2022-12-14T09:58:15.843Z,93.98
2022-12-14T10:00:53.798Z,93.65
2022-12-14T10:04:17.530Z,93.51
2022-12-14T10:07:41.460Z,93.38
2022-12-14T10:10:23.853Z,93.07
2022-12-14T10:13:31.989Z,93.32
2022-12-14T10:16:08.008Z,93.12
2022-12-14T10:19:04.143Z,93.61
2022-12-14T10:21:44.814Z,94.33
2022-12-14T10:24:20.605Z,95.03
2022-12-14T10:26:56.577Z,95.51
2022-12-14T10:29:35.134Z,95.39
2022-12-14T10:32:19.875Z,95.11
2022-12-14T10:34:46.680Z,93.72
2022-12-14T10:37:33.608Z,93.90
2022-12-14T10:40:14.585Z,93.97
2022-12-14T10:43:24.931Z,94.15
2022-12-14T10:45:59.501Z,94.49
2022-12-14T10:48:57.031Z,93.85
2022-12-14T10:51:45.270Z,93.80
2022-12-14T10:54:34.378Z,93.85
2022-12-14T10:57:01.401Z,93.74
2022-12-14T10:59:40.689Z,94.45
2022-12-14T11:02:23.885Z,95.05
2022-12-14T11:05:19.582Z,94.58
2022-12-14T11:07:49.815Z,94.63
2022-12-14T11:10:28.622Z,94.99
2022-12-14T11:13:17.971Z,95.00
2022-12-14T11:15:51.128Z,95.21
2022-12-14T11:18:18.027Z,94.67
2022-12-14T11:21:00.885Z,95.00
2022-12-14T11:23:36.590Z,94.67
2022-12-14T11:26:07.262Z,95.18
2022-12-14T11:28:50.325Z,94.58
2022-12-14T11:31:35.840Z,94.79
2022-12-14T11:34:05.984Z,94.58
2022-12-14T11:36:39.776Z,94.86
2022-12-14T11:39:22.111Z,94.35
2022-12-14T11:42:01.930Z,94.29
2022-12-14T11:44:36.441Z,94.69
2022-12-14T11:47:15.906Z,94.73
2022-12-14T11:49:43.750Z,94.51
2022-12-14T11:52:18.345Z,94.85
2022-12-14T11:55:11.313Z,94.36
2022-12-14T11:57:55.650Z,94.22
2022-12-14T12:00:30.384Z,94.60
2022-12-14T12:03:13.082Z,94.19
2022-12-14T12:05:42.897Z,94.53
2022-12-14T12:08:29.099Z,95.12
2022-12-14T12:11:02.944Z,95.61
2022-12-14T12:13:35.640Z,95.33
2022-12-14T12:16:06.322Z,95.39
2022-12-14T12:18:55.491Z,95.12
2022-12-14T12:21:33.765Z,94.84
2022-12-14T12:24:07.150Z,94.56
2022-12-14T12:26:39.378Z,94.78
2022-12-14T12:29:24.366Z,94.75
2022-12-14T12:32:06.741Z,94.87
2022-12-14T12:34:51.627Z,94.80
2022-12-14T12:37:29.853Z,95.07
2022-12-14T12:40:10.904Z,95.47
2022-12-14T12:42:52.744Z,95.71
2022-12-14T12:45:27.717Z,95.19
2022-12-14T12:48:41.092Z,95.43
2022-12-14T12:51:16.168Z,95.49
2022-12-14T12:53:48.074Z,95.67
2022-12-14T12:56:22.874Z,96.06
2022-12-14T12:58:53.051Z,96.19
2022-12-14T13:01:39.728Z,96.12
2022-12-14T13:04:12.946Z,96.29
2022-12-14T13:06:50.621Z,95.99
2022-12-14T13:09:44.587Z,96.73
2022-12-14T13:12:28.257Z,97.30
2022-12-14T13:14:58.537Z,97.39
2022-12-14T13:17:36.098Z,97.53
2022-12-14T13:20:07.690Z,97.49
2022-12-14T13:22:36.477Z,98.03
2022-12-14T13:25:16.173Z,98.04
2022-12-14T13:28:02.697Z,98.30
2022-12-14T13:30:48.168Z,98.31
2022-12-14T13:33:42.677Z,98.63
2022-12-14T13:36:45.881Z,98.94
2022-12-14T13:39:53.439Z,99.32
2022-12-14T13:42:52.011Z,99.48
2022-12-14T13:45:22.392Z,99.71
2022-12-14T13:47:54.110Z,99.44
2022-12-14T13:50:54.217Z,99.39
2022-12-14T13:53:42.593Z,99.53
2022-12-14T13:56:19.089Z,99.63
2022-12-14T13:58:48.652Z,99.71
2022-12-14T14:01:45.956Z,99.92
2022-12-14T14:04:15.385Z,99.44
2022-12-14T14:06:44.988Z,99.25
2022-12-14T14:09:26.844Z,99.06
2022-12-14T14:12:05.025Z,99.17
2022-12-14T14:15:30.405Z,98.66
2022-12-14T14:18:16.085Z,98.73
2022-12-14T14:20:58.561Z,98.82
2022-12-14T14:23:33.164Z,99.17
2022-12-14T14:26:34.645Z,99.82
2022-12-14T14:29:30.164Z,99.80
2022-12-14T14:32:06.097Z,99.83
2022-12-14T14:34:44.933Z,100.00
2022-12-14T14:37:20.505Z,100.00
2022-12-14T14:40:20.881Z,100.00
2022-12-14T14:43:01.206Z,100.00
2022-12-14T14:45:36.136Z,100.00
2022-12-14T14:48:33.321Z,100.00
2022-12-14T14:51:25.256Z,100.00
2022-12-14T14:54:36.931Z,100.00
2022-12-14T14:57:03.668Z,100.00
2022-12-14T15:00:01.092Z,100.00
2022-12-14T15:02:33.739Z,100.00
2022-12-14T15:07:49.140Z,100.00
2022-12-14T15:10:39.236Z,100.00
2022-12-14T15:13:15.097Z,100.00
2022-12-14T15:15:46.460Z,100.00
2022-12-14T15:18:27.561Z,100.00
2022-12-14T15:21:01.120Z,100.00
2022-12-14T15:23:38.779Z,100.00
2022-12-14T15:26:20.265Z,100.00
2022-12-14T15:29:05.329Z,100.00
2022-12-14T15:31:42.094Z,100.00
2022-12-14T15:34:17.570Z,100.00
2022-12-14T15:36:45.169Z,100.00
2022-12-14T15:39:30.426Z,100.00
2022-12-14T15:42:15.224Z,100.00
2022-12-14T15:44:56.511Z,100.00
2022-12-14T15:47:31.934Z,100.00
2022-12-14T15:50:28.099Z,100.00
2022-12-14T15:53:00.261Z,100.00
2022-12-14T15:55:38.669Z,100.00
2022-12-14T15:58:20.804Z,100.00
2022-12-14T16:00:52.030Z,100.00
2022-12-14T16:03:33.533Z,100.00
2022-12-14T16:06:01.893Z,100.00
2022-12-14T16:08:32.634Z,100.00
2022-12-14T16:11:07.223Z,100.00
2022-12-14T16:13:40.492Z,100.00
2022-12-14T16:16:10.942Z,100.00
2022-12-14T16:18:50.778Z,100.00
2022-12-14T16:21:34.643Z,100.00
2022-12-14T16:24:25.012Z,100.00
2022-12-14T16:26:58.917Z,100.00
2022-12-14T16:29:29.381Z,100.00
2022-12-14T16:32:13.609Z,100.00
2022-12-14T16:34:59.026Z,100.00
2022-12-14T16:37:34.302Z,100.00
2022-12-14T16:40:01.405Z,100.00
2022-12-14T16:42:32.538Z,100.00
2022-12-14T16:44:59.329Z,100.00
2022-12-14T16:47:48.531Z,100.00
2022-12-14T16:50:56.278Z,100.00
2022-12-14T16:53:23.592Z,100.00
2022-12-14T16:56:15.618Z,100.00
2022-12-14T16:58:58.285Z,100.00
2022-12-14T17:01:26.470Z,100.00
2022-12-14T17:04:02.427Z,100.00
2022-12-14T17:06:47.391Z,100.00
2022-12-14T17:09:30.161Z,100.00
2022-12-14T17:12:02.202Z,100.00
2022-12-14T17:14:29.099Z,100.00
2022-12-14T17:17:01.748Z,100.00
2022-12-14T17:19:38.569Z,100.00
2022-12-14T17:22:14.063Z,100.00
2022-12-14T17:24:40.856Z,100.00
2022-12-14T17:27:07.777Z,100.00
2022-12-14T17:29:34.626Z,100.00
2022-12-14T17:32:02.848Z,100.00
2022-12-14T17:34:30.140Z,100.00
2022-12-14T17:36:57.510Z,100.00
2022-12-14T17:39:24.965Z,100.00
2022-12-14T17:41:52.108Z,100.00
2022-12-14T17:44:20.511Z,100.00
2022-12-14T17:46:52.220Z,100.00
2022-12-14T17:49:34.069Z,100.00
2022-12-14T17:52:04.936Z,100.00
2022-12-14T17:54:32.441Z,100.00
2022-12-14T17:57:00.079Z,100.00
2022-12-14T17:59:26.961Z,100.00
2022-12-14T18:01:54.096Z,100.00
2022-12-14T18:04:20.911Z,100.00
2022-12-14T18:06:47.623Z,100.00
2022-12-14T18:09:16.176Z,100.00
2022-12-14T18:12:00.566Z,100.00
2022-12-14T18:14:29.708Z,100.00
2022-12-14T18:17:00.965Z,100.00
2022-12-14T18:19:27.792Z,100.00
2022-12-14T18:21:54.526Z,100.00
2022-12-14T18:24:25.715Z,100.00
2022-12-14T18:26:52.909Z,100.00
2022-12-14T18:29:20.615Z,100.00
2022-12-14T18:31:49.473Z,100.00
2022-12-14T18:34:16.491Z,100.00
2022-12-14T18:36:43.383Z,100.00
2022-12-14T18:39:10.109Z,100.00
2022-12-14T18:41:36.838Z,100.00
2022-12-14T18:44:03.713Z,100.00
2022-12-14T18:46:30.480Z,100.00
2022-12-14T18:48:57.441Z,100.00
2022-12-14T18:51:26.006Z,100.00
2022-12-14T18:53:54.668Z,100.00
2022-12-14T18:56:23.402Z,100.00
2022-12-14T18:58:50.974Z,100.00
2022-12-14T19:01:22.357Z,100.00
2022-12-14T19:03:49.464Z,100.00
2022-12-14T19:09:08.332Z,100.00
2022-12-14T19:11:39.075Z,100.00
2022-12-14T19:14:06.090Z,100.00
2022-12-14T19:16:33.195Z,100.00
2022-12-14T19:19:00.807Z,100.00
2022-12-14T19:21:29.524Z,100.00
2022-12-14T19:23:56.326Z,100.00
2022-12-14T19:26:23.398Z,100.00
2022-12-14T19:28:50.183Z,100.00
2022-12-14T19:31:16.999Z,100.00
2022-12-14T19:33:43.780Z,100.00
2022-12-14T19:36:11.084Z,100.00
2022-12-14T19:38:38.168Z,100.00
2022-12-14T19:41:10.145Z,100.00
2022-12-14T19:43:36.904Z,100.00
2022-12-14T19:46:08.928Z,100.00
2022-12-14T19:48:36.194Z,100.00
2022-12-14T19:51:10.527Z,100.00
2022-12-14T19:53:39.267Z,100.00
2022-12-14T19:56:06.817Z,100.00
2022-12-14T19:58:33.564Z,100.00
2022-12-14T20:01:00.428Z,100.00
2022-12-14T20:03:28.002Z,100.00
2022-12-14T20:05:59.746Z,100.00
2022-12-14T20:08:29.950Z,100.00
2022-12-14T20:10:57.780Z,100.00
2022-12-14T20:13:27.476Z,100.00
2022-12-14T20:15:59.999Z,100.00
2022-12-14T20:18:28.278Z,100.00
2022-12-14T20:21:02.794Z,100.00
2022-12-14T20:23:29.879Z,100.00
2022-12-14T20:26:01.490Z,100.00
2022-12-14T20:28:28.351Z,100.00
2022-12-14T20:30:55.795Z,100.00
2022-12-14T20:33:28.100Z,100.00
2022-12-14T20:35:57.018Z,100.00
2022-12-14T20:38:23.812Z,100.00
2022-12-14T20:40:50.696Z,100.00
2022-12-14T20:43:17.449Z,100.00
2022-12-14T20:45:44.540Z,100.00
2022-12-14T20:48:11.775Z,100.00
2022-12-14T20:50:41.485Z,100.00
2022-12-14T20:53:08.554Z,100.00
2022-12-14T20:55:35.893Z,100.00
2022-12-14T20:58:02.650Z,100.00
2022-12-14T21:00:29.461Z,100.00
2022-12-14T21:02:56.411Z,100.00
2022-12-14T21:05:23.469Z,100.00
2022-12-14T21:07:50.274Z,100.00
2022-12-14T21:10:17.114Z,100.00
2022-12-14T21:12:44.675Z,100.00
2022-12-14T21:15:11.493Z,100.00
2022-12-14T21:17:39.242Z,100.00
2022-12-14T21:20:06.714Z,100.00
2022-12-14T21:22:35.395Z,100.00
2022-12-14T21:25:04.347Z,100.00
2022-12-14T21:27:34.196Z,100.00
2022-12-14T21:30:01.556Z,100.00
2022-12-14T21:32:28.532Z,100.00
2022-12-14T21:34:55.275Z,100.00
2022-12-14T21:37:22.265Z,100.00
2022-12-14T21:39:54.123Z,100.00
2022-12-14T21:42:24.228Z,100.00
2022-12-14T21:44:53.126Z,100.00
2022-12-14T21:47:26.937Z,100.00
2022-12-14T21:49:54.522Z,100.00
2022-12-14T21:52:24.508Z,100.00
2022-12-14T21:54:51.334Z,100.00
2022-12-14T21:57:41.940Z,100.00
2022-12-14T22:00:11.153Z,100.00
2022-12-14T22:02:38.065Z,100.00
2022-12-14T22:05:05.497Z,100.00
2022-12-14T22:07:34.330Z,100.00
2022-12-14T22:10:01.290Z,100.00
2022-12-14T22:12:28.527Z,100.00
2022-12-14T22:14:55.362Z,100.00
2022-12-14T22:17:22.087Z,100.00
2022-12-14T22:19:51.024Z,100.00
2022-12-14T22:22:18.212Z,100.00
2022-12-14T22:24:49.577Z,100.00
2022-12-14T22:27:16.368Z,100.00
2022-12-14T22:29:43.067Z,100.00
2022-12-14T22:32:12.393Z,100.00
2022-12-14T22:34:39.452Z,100.00
2022-12-14T22:37:06.556Z,100.00
2022-12-14T22:39:33.388Z,100.00
2022-12-14T22:42:00.397Z,100.00
2022-12-14T22:44:27.278Z,100.00
2022-12-14T22:46:54.084Z,100.00
2022-12-14T22:49:20.891Z,100.00
2022-12-14T22:51:47.683Z,100.00
2022-12-14T22:54:24.314Z,100.00
2022-12-14T22:57:00.574Z,100.00
2022-12-14T22:59:34.156Z,100.00
2022-12-14T23:02:01.130Z,100.00
2022-12-14T23:04:29.308Z,100.00
2022-12-14T23:06:56.170Z,100.00
2022-12-14T23:09:41.466Z,100.00
2022-12-14T23:12:26.927Z,100.00
2022-12-14T23:15:12.544Z,100.00
2022-12-14T23:17:57.805Z,100.00
2022-12-14T23:20:42.953Z,100.00
2022-12-14T23:23:29.085Z,100.00
2022-12-14T23:26:14.541Z,100.00
2022-12-14T23:28:59.697Z,100.00
2022-12-14T23:31:45.348Z,100.00
2022-12-14T23:34:30.704Z,100.00
2022-12-14T23:37:20.156Z,100.00
2022-12-14T23:40:06.512Z,100.00
2022-12-14T23:42:51.627Z,100.00
2022-12-14T23:45:36.777Z,100.00
2022-12-14T23:48:22.502Z,100.00
2022-12-14T23:51:08.017Z,100.00
2022-12-14T23:53:53.658Z,100.00
2022-12-14T23:56:39.124Z,100.00
2022-12-14T23:59:31.459Z,100.00
